sensor_id;sensor_type;location;lat;lon;timestamp;temperature;humidity
22852;DHT22;11592;45.460;9.240;2022-12-29T00:01:43;10.00;99.90
22852;DHT22;11592;45.460;9.240;2022-12-29T00:04:13;9.90;99.90
22852;DHT22;11592;45.460;9.240;2022-12-29T00:06:42;9.80;99.90
22852;DHT22;11592;45.460;9.240;2022-12-29T00:09:11;9.80;99.90
22852;DHT22;11592;45.460;9.240;2022-12-29T00:11:39;9.70;99.90
22852;DHT22;11592;45.460;9.240;2022-12-29T00:14:08;9.80;99.90
22852;DHT22;11592;45.460;9.240;2022-12-29T00:16:53;9.90;99.90
22852;DHT22;11592;45.460;9.240;2022-12-29T00:19:20;9.90;99.90
22852;DHT22;11592;45.460;9.240;2022-12-29T00:22:06;9.80;99.90
22852;DHT22;11592;45.460;9.240;2022-12-29T00:24:51;9.80;99.90
22852;DHT22;11592;45.460;9.240;2022-12-29T00:27:21;9.80;99.90
22852;DHT22;11592;45.460;9.240;2022-12-29T00:30:21;9.90;99.90
22852;DHT22;11592;45.460;9.240;2022-12-29T00:33:15;9.90;99.90
22852;DHT22;11592;45.460;9.240;2022-12-29T00:36:05;9.90;99.90
22852;DHT22;11592;45.460;9.240;2022-12-29T00:38:36;9.80;99.90
22852;DHT22;11592;45.460;9.240;2022-12-29T00:41:22;9.70;99.90
22852;DHT22;11592;45.460;9.240;2022-12-29T00:44:09;9.60;99.90
22852;DHT22;11592;45.460;9.240;2022-12-29T00:46:38;9.70;99.90
22852;DHT22;11592;45.460;9.240;2022-12-29T00:49:07;9.70;99.90
22852;DHT22;11592;45.460;9.240;2022-12-29T00:51:54;9.60;99.90
22852;DHT22;11592;45.460;9.240;2022-12-29T00:54:21;9.50;99.90
22852;DHT22;11592;45.460;9.240;2022-12-29T00:56:49;9.50;99.90
22852;DHT22;11592;45.460;9.240;2022-12-29T00:59:17;9.70;99.90
22852;DHT22;11592;45.460;9.240;2022-12-29T01:01:44;9.60;99.90
22852;DHT22;11592;45.460;9.240;2022-12-29T01:04:12;9.60;99.90
22852;DHT22;11592;45.460;9.240;2022-12-29T01:06:40;9.80;99.90
22852;DHT22;11592;45.460;9.240;2022-12-29T01:09:08;10.00;99.90
22852;DHT22;11592;45.460;9.240;2022-12-29T01:11:54;10.00;99.90
22852;DHT22;11592;45.460;9.240;2022-12-29T01:14:22;10.00;99.90
22852;DHT22;11592;45.460;9.240;2022-12-29T01:16:49;10.10;99.90
22852;DHT22;11592;45.460;9.240;2022-12-29T01:19:17;10.10;99.90
22852;DHT22;11592;45.460;9.240;2022-12-29T01:21:44;9.90;99.90
22852;DHT22;11592;45.460;9.240;2022-12-29T01:24:11;9.80;99.90
22852;DHT22;11592;45.460;9.240;2022-12-29T01:26:38;9.60;99.90
22852;DHT22;11592;45.460;9.240;2022-12-29T01:29:05;9.60;99.90
22852;DHT22;11592;45.460;9.240;2022-12-29T01:31:32;9.90;99.90
22852;DHT22;11592;45.460;9.240;2022-12-29T01:33:59;10.00;99.90
22852;DHT22;11592;45.460;9.240;2022-12-29T01:36:27;10.00;99.90
22852;DHT22;11592;45.460;9.240;2022-12-29T01:38:53;10.00;99.90
22852;DHT22;11592;45.460;9.240;2022-12-29T01:41:21;10.10;99.90
22852;DHT22;11592;45.460;9.240;2022-12-29T01:43:55;10.20;99.90
22852;DHT22;11592;45.460;9.240;2022-12-29T01:46:44;10.20;99.90
22852;DHT22;11592;45.460;9.240;2022-12-29T01:49:21;10.30;99.90
22852;DHT22;11592;45.460;9.240;2022-12-29T01:51:52;10.30;99.90
22852;DHT22;11592;45.460;9.240;2022-12-29T01:57:00;10.30;99.90
22852;DHT22;11592;45.460;9.240;2022-12-29T01:59:31;10.00;99.90
22852;DHT22;11592;45.460;9.240;2022-12-29T02:01:59;10.00;99.90
22852;DHT22;11592;45.460;9.240;2022-12-29T02:04:30;10.20;99.90
22852;DHT22;11592;45.460;9.240;2022-12-29T02:07:10;10.30;99.90
22852;DHT22;11592;45.460;9.240;2022-12-29T02:09:38;10.30;99.90
22852;DHT22;11592;45.460;9.240;2022-12-29T02:12:05;10.30;99.90
22852;DHT22;11592;45.460;9.240;2022-12-29T02:14:32;10.40;99.90
22852;DHT22;11592;45.460;9.240;2022-12-29T02:17:29;10.30;99.90
22852;DHT22;11592;45.460;9.240;2022-12-29T02:31:52;10.00;99.90
22852;DHT22;11592;45.460;9.240;2022-12-29T02:34:47;9.90;99.90
22852;DHT22;11592;45.460;9.240;2022-12-29T02:42:32;10.00;99.90
22852;DHT22;11592;45.460;9.240;2022-12-29T02:45:07;10.00;99.90
22852;DHT22;11592;45.460;9.240;2022-12-29T02:48:16;10.00;99.90
22852;DHT22;11592;45.460;9.240;2022-12-29T02:50:54;10.10;99.90
22852;DHT22;11592;45.460;9.240;2022-12-29T02:53:24;9.90;99.90
22852;DHT22;11592;45.460;9.240;2022-12-29T02:56:09;9.70;99.90
22852;DHT22;11592;45.460;9.240;2022-12-29T02:58:36;9.60;99.90
22852;DHT22;11592;45.460;9.240;2022-12-29T03:07:10;9.80;99.90
22852;DHT22;11592;45.460;9.240;2022-12-29T03:12:50;10.10;99.90
22852;DHT22;11592;45.460;9.240;2022-12-29T03:15:44;10.20;99.90
22852;DHT22;11592;45.460;9.240;2022-12-29T03:18:35;10.20;99.90
22852;DHT22;11592;45.460;9.240;2022-12-29T03:23:45;10.30;99.90
22852;DHT22;11592;45.460;9.240;2022-12-29T03:26:16;10.30;99.90
22852;DHT22;11592;45.460;9.240;2022-12-29T03:28:50;10.30;99.90
22852;DHT22;11592;45.460;9.240;2022-12-29T03:31:19;10.20;99.90
22852;DHT22;11592;45.460;9.240;2022-12-29T03:33:47;10.20;99.90
22852;DHT22;11592;45.460;9.240;2022-12-29T03:36:23;10.20;99.90
22852;DHT22;11592;45.460;9.240;2022-12-29T03:39:08;10.10;99.90
22852;DHT22;11592;45.460;9.240;2022-12-29T03:41:41;10.20;99.90
22852;DHT22;11592;45.460;9.240;2022-12-29T03:44:09;10.20;99.90
22852;DHT22;11592;45.460;9.240;2022-12-29T03:46:36;10.20;99.90
22852;DHT22;11592;45.460;9.240;2022-12-29T03:49:03;10.10;99.90
22852;DHT22;11592;45.460;9.240;2022-12-29T03:51:29;10.20;99.90
22852;DHT22;11592;45.460;9.240;2022-12-29T03:53:56;10.20;99.90
22852;DHT22;11592;45.460;9.240;2022-12-29T03:56:23;10.20;99.90
22852;DHT22;11592;45.460;9.240;2022-12-29T03:58:50;10.30;99.90
22852;DHT22;11592;45.460;9.240;2022-12-29T04:01:17;10.30;99.90
22852;DHT22;11592;45.460;9.240;2022-12-29T04:03:45;10.30;99.90
22852;DHT22;11592;45.460;9.240;2022-12-29T04:06:12;10.20;99.90
22852;DHT22;11592;45.460;9.240;2022-12-29T04:08:38;10.20;99.90
22852;DHT22;11592;45.460;9.240;2022-12-29T04:11:05;10.20;99.90
22852;DHT22;11592;45.460;9.240;2022-12-29T04:13:32;10.20;99.90
22852;DHT22;11592;45.460;9.240;2022-12-29T04:15:59;10.20;99.90
22852;DHT22;11592;45.460;9.240;2022-12-29T04:18:26;10.30;99.90
22852;DHT22;11592;45.460;9.240;2022-12-29T04:20:53;10.40;99.90
22852;DHT22;11592;45.460;9.240;2022-12-29T04:23:27;10.40;99.90
22852;DHT22;11592;45.460;9.240;2022-12-29T04:25:54;10.40;99.90
22852;DHT22;11592;45.460;9.240;2022-12-29T04:28:20;10.30;99.90
22852;DHT22;11592;45.460;9.240;2022-12-29T04:30:47;10.30;99.90
22852;DHT22;11592;45.460;9.240;2022-12-29T04:33:14;10.30;99.90
22852;DHT22;11592;45.460;9.240;2022-12-29T04:35:43;10.40;99.90
22852;DHT22;11592;45.460;9.240;2022-12-29T04:38:10;10.40;99.90
22852;DHT22;11592;45.460;9.240;2022-12-29T04:40:39;10.40;99.90
22852;DHT22;11592;45.460;9.240;2022-12-29T04:43:06;10.40;99.90
22852;DHT22;11592;45.460;9.240;2022-12-29T04:45:33;10.40;99.90
22852;DHT22;11592;45.460;9.240;2022-12-29T04:48:00;10.40;99.90
22852;DHT22;11592;45.460;9.240;2022-12-29T04:50:27;10.40;99.90
22852;DHT22;11592;45.460;9.240;2022-12-29T04:52:54;10.30;99.90
22852;DHT22;11592;45.460;9.240;2022-12-29T04:55:20;10.30;99.90
22852;DHT22;11592;45.460;9.240;2022-12-29T04:57:47;10.30;99.90
22852;DHT22;11592;45.460;9.240;2022-12-29T05:00:14;10.30;99.90
22852;DHT22;11592;45.460;9.240;2022-12-29T05:02:41;10.30;99.90
22852;DHT22;11592;45.460;9.240;2022-12-29T05:05:09;10.30;99.90
22852;DHT22;11592;45.460;9.240;2022-12-29T05:07:35;10.30;99.90
22852;DHT22;11592;45.460;9.240;2022-12-29T05:10:03;10.30;99.90
22852;DHT22;11592;45.460;9.240;2022-12-29T05:12:31;10.20;99.90
22852;DHT22;11592;45.460;9.240;2022-12-29T05:14:59;10.10;99.90
22852;DHT22;11592;45.460;9.240;2022-12-29T05:17:26;10.10;99.90
22852;DHT22;11592;45.460;9.240;2022-12-29T05:19:53;10.20;99.90
22852;DHT22;11592;45.460;9.240;2022-12-29T05:22:20;10.20;99.90
22852;DHT22;11592;45.460;9.240;2022-12-29T05:24:46;10.20;99.90
22852;DHT22;11592;45.460;9.240;2022-12-29T05:27:13;10.20;99.90
22852;DHT22;11592;45.460;9.240;2022-12-29T05:29:40;10.00;99.90
22852;DHT22;11592;45.460;9.240;2022-12-29T05:32:07;10.00;99.90
22852;DHT22;11592;45.460;9.240;2022-12-29T05:34:34;10.00;99.90
22852;DHT22;11592;45.460;9.240;2022-12-29T05:37:00;9.90;99.90
22852;DHT22;11592;45.460;9.240;2022-12-29T05:39:29;10.00;99.90
22852;DHT22;11592;45.460;9.240;2022-12-29T05:41:55;10.00;99.90
22852;DHT22;11592;45.460;9.240;2022-12-29T05:44:22;9.90;99.90
22852;DHT22;11592;45.460;9.240;2022-12-29T05:46:49;9.80;99.90
22852;DHT22;11592;45.460;9.240;2022-12-29T05:49:16;9.90;99.90
22852;DHT22;11592;45.460;9.240;2022-12-29T05:51:43;9.80;99.90
22852;DHT22;11592;45.460;9.240;2022-12-29T05:54:10;9.80;99.90
22852;DHT22;11592;45.460;9.240;2022-12-29T05:56:37;9.80;99.90
22852;DHT22;11592;45.460;9.240;2022-12-29T05:59:04;9.80;99.90
22852;DHT22;11592;45.460;9.240;2022-12-29T06:01:30;9.80;99.90
22852;DHT22;11592;45.460;9.240;2022-12-29T06:03:57;9.90;99.90
22852;DHT22;11592;45.460;9.240;2022-12-29T06:06:24;9.90;99.90
22852;DHT22;11592;45.460;9.240;2022-12-29T06:08:51;9.90;99.90
22852;DHT22;11592;45.460;9.240;2022-12-29T06:11:18;9.70;99.90
22852;DHT22;11592;45.460;9.240;2022-12-29T06:13:45;9.70;99.90
22852;DHT22;11592;45.460;9.240;2022-12-29T06:16:12;9.70;99.90
22852;DHT22;11592;45.460;9.240;2022-12-29T06:18:39;9.80;99.90
22852;DHT22;11592;45.460;9.240;2022-12-29T06:21:06;9.80;99.90
22852;DHT22;11592;45.460;9.240;2022-12-29T06:23:33;9.80;99.90
22852;DHT22;11592;45.460;9.240;2022-12-29T06:25:59;9.70;99.90
22852;DHT22;11592;45.460;9.240;2022-12-29T06:28:26;9.70;99.90
22852;DHT22;11592;45.460;9.240;2022-12-29T06:30:53;9.70;99.90
22852;DHT22;11592;45.460;9.240;2022-12-29T06:33:20;9.80;99.90
22852;DHT22;11592;45.460;9.240;2022-12-29T06:35:47;9.60;99.90
22852;DHT22;11592;45.460;9.240;2022-12-29T06:38:14;9.60;99.90
22852;DHT22;11592;45.460;9.240;2022-12-29T06:40:42;9.60;99.90
22852;DHT22;11592;45.460;9.240;2022-12-29T06:43:09;9.60;99.90
22852;DHT22;11592;45.460;9.240;2022-12-29T06:45:38;9.70;99.90
22852;DHT22;11592;45.460;9.240;2022-12-29T06:48:07;9.60;99.90
22852;DHT22;11592;45.460;9.240;2022-12-29T06:50:34;9.90;99.90
22852;DHT22;11592;45.460;9.240;2022-12-29T06:53:01;9.90;99.90
22852;DHT22;11592;45.460;9.240;2022-12-29T06:55:28;9.90;99.90
22852;DHT22;11592;45.460;9.240;2022-12-29T06:57:56;10.00;99.90
22852;DHT22;11592;45.460;9.240;2022-12-29T07:00:23;9.90;99.90
22852;DHT22;11592;45.460;9.240;2022-12-29T07:02:51;9.90;99.90
22852;DHT22;11592;45.460;9.240;2022-12-29T07:05:17;9.60;99.90
22852;DHT22;11592;45.460;9.240;2022-12-29T07:07:44;9.60;99.90
22852;DHT22;11592;45.460;9.240;2022-12-29T07:10:11;9.80;99.90
22852;DHT22;11592;45.460;9.240;2022-12-29T07:12:38;9.70;99.90
22852;DHT22;11592;45.460;9.240;2022-12-29T07:15:05;9.80;99.90
22852;DHT22;11592;45.460;9.240;2022-12-29T07:17:32;9.70;99.90
22852;DHT22;11592;45.460;9.240;2022-12-29T07:19:59;9.70;99.90
22852;DHT22;11592;45.460;9.240;2022-12-29T07:22:26;9.80;99.90
22852;DHT22;11592;45.460;9.240;2022-12-29T07:24:53;9.80;99.90
22852;DHT22;11592;45.460;9.240;2022-12-29T07:27:20;9.80;99.90
22852;DHT22;11592;45.460;9.240;2022-12-29T07:29:46;9.80;99.90
22852;DHT22;11592;45.460;9.240;2022-12-29T07:32:13;9.80;99.90
22852;DHT22;11592;45.460;9.240;2022-12-29T07:34:40;9.90;99.90
22852;DHT22;11592;45.460;9.240;2022-12-29T07:37:07;9.90;99.90
22852;DHT22;11592;45.460;9.240;2022-12-29T07:39:34;9.90;99.90
22852;DHT22;11592;45.460;9.240;2022-12-29T07:42:00;9.90;99.90
22852;DHT22;11592;45.460;9.240;2022-12-29T07:44:30;10.00;99.90
22852;DHT22;11592;45.460;9.240;2022-12-29T07:46:57;10.00;99.90
22852;DHT22;11592;45.460;9.240;2022-12-29T07:49:25;10.10;99.90
22852;DHT22;11592;45.460;9.240;2022-12-29T07:51:52;10.10;99.90
22852;DHT22;11592;45.460;9.240;2022-12-29T07:54:19;10.10;99.90
22852;DHT22;11592;45.460;9.240;2022-12-29T07:56:46;10.10;99.90
22852;DHT22;11592;45.460;9.240;2022-12-29T07:59:13;10.00;99.90
22852;DHT22;11592;45.460;9.240;2022-12-29T08:01:40;10.00;99.90
22852;DHT22;11592;45.460;9.240;2022-12-29T08:04:07;10.00;99.90
22852;DHT22;11592;45.460;9.240;2022-12-29T08:06:34;10.00;99.90
22852;DHT22;11592;45.460;9.240;2022-12-29T08:09:01;10.00;99.90
22852;DHT22;11592;45.460;9.240;2022-12-29T08:11:38;10.00;99.90
22852;DHT22;11592;45.460;9.240;2022-12-29T08:14:05;10.00;99.90
22852;DHT22;11592;45.460;9.240;2022-12-29T08:16:32;10.00;99.90
22852;DHT22;11592;45.460;9.240;2022-12-29T08:18:59;10.00;99.90
22852;DHT22;11592;45.460;9.240;2022-12-29T08:21:27;9.90;99.90
22852;DHT22;11592;45.460;9.240;2022-12-29T08:23:54;10.00;99.90
22852;DHT22;11592;45.460;9.240;2022-12-29T08:26:21;9.90;99.90
22852;DHT22;11592;45.460;9.240;2022-12-29T08:28:52;9.90;99.90
22852;DHT22;11592;45.460;9.240;2022-12-29T08:31:19;10.00;99.90
22852;DHT22;11592;45.460;9.240;2022-12-29T08:33:46;9.70;99.90
22852;DHT22;11592;45.460;9.240;2022-12-29T08:36:13;9.80;99.90
22852;DHT22;11592;45.460;9.240;2022-12-29T08:38:40;9.80;99.90
22852;DHT22;11592;45.460;9.240;2022-12-29T08:41:07;9.80;99.90
22852;DHT22;11592;45.460;9.240;2022-12-29T08:43:34;9.80;99.90
22852;DHT22;11592;45.460;9.240;2022-12-29T08:46:01;9.60;99.90
22852;DHT22;11592;45.460;9.240;2022-12-29T08:48:28;9.50;99.90
22852;DHT22;11592;45.460;9.240;2022-12-29T08:50:55;9.50;99.90
22852;DHT22;11592;45.460;9.240;2022-12-29T08:53:22;9.50;99.90
22852;DHT22;11592;45.460;9.240;2022-12-29T08:55:56;9.40;99.90
22852;DHT22;11592;45.460;9.240;2022-12-29T08:58:30;9.40;99.90
22852;DHT22;11592;45.460;9.240;2022-12-29T09:00:58;9.60;99.90
22852;DHT22;11592;45.460;9.240;2022-12-29T09:03:26;9.80;99.90
22852;DHT22;11592;45.460;9.240;2022-12-29T09:06:14;9.90;99.90
22852;DHT22;11592;45.460;9.240;2022-12-29T09:08:41;9.80;99.90
22852;DHT22;11592;45.460;9.240;2022-12-29T09:13:41;9.90;99.90
22852;DHT22;11592;45.460;9.240;2022-12-29T09:16:08;9.80;99.90
22852;DHT22;11592;45.460;9.240;2022-12-29T09:18:35;9.80;99.90
22852;DHT22;11592;45.460;9.240;2022-12-29T09:21:04;9.90;99.90
22852;DHT22;11592;45.460;9.240;2022-12-29T09:23:32;9.90;99.90
22852;DHT22;11592;45.460;9.240;2022-12-29T09:25:59;10.10;99.90
22852;DHT22;11592;45.460;9.240;2022-12-29T09:28:26;10.30;99.90
22852;DHT22;11592;45.460;9.240;2022-12-29T09:30:53;10.50;99.90
22852;DHT22;11592;45.460;9.240;2022-12-29T09:33:20;10.50;99.90
22852;DHT22;11592;45.460;9.240;2022-12-29T09:35:55;10.50;99.90
22852;DHT22;11592;45.460;9.240;2022-12-29T09:38:23;10.50;99.90
22852;DHT22;11592;45.460;9.240;2022-12-29T09:40:52;10.60;99.90
22852;DHT22;11592;45.460;9.240;2022-12-29T09:43:25;10.40;99.90
22852;DHT22;11592;45.460;9.240;2022-12-29T09:46:18;10.50;99.90
22852;DHT22;11592;45.460;9.240;2022-12-29T09:48:52;10.60;99.90
22852;DHT22;11592;45.460;9.240;2022-12-29T09:51:23;10.60;99.90
22852;DHT22;11592;45.460;9.240;2022-12-29T09:54:19;10.60;99.90
22852;DHT22;11592;45.460;9.240;2022-12-29T09:56:47;10.60;99.90
22852;DHT22;11592;45.460;9.240;2022-12-29T09:59:19;10.70;99.90
22852;DHT22;11592;45.460;9.240;2022-12-29T10:01:52;10.80;99.90
22852;DHT22;11592;45.460;9.240;2022-12-29T10:04:20;10.80;99.90
22852;DHT22;11592;45.460;9.240;2022-12-29T10:06:56;10.50;99.90
22852;DHT22;11592;45.460;9.240;2022-12-29T10:10:00;10.50;99.90
22852;DHT22;11592;45.460;9.240;2022-12-29T10:18:38;10.80;99.90
22852;DHT22;11592;45.460;9.240;2022-12-29T10:21:37;11.00;99.90
22852;DHT22;11592;45.460;9.240;2022-12-29T10:24:11;11.40;99.90
22852;DHT22;11592;45.460;9.240;2022-12-29T10:26:43;11.70;99.90
22852;DHT22;11592;45.460;9.240;2022-12-29T10:29:20;11.80;99.90
22852;DHT22;11592;45.460;9.240;2022-12-29T10:34:29;12.00;99.90
22852;DHT22;11592;45.460;9.240;2022-12-29T10:37:17;11.90;99.90
22852;DHT22;11592;45.460;9.240;2022-12-29T10:39:49;11.80;99.90
22852;DHT22;11592;45.460;9.240;2022-12-29T10:42:53;11.60;99.90
22852;DHT22;11592;45.460;9.240;2022-12-29T10:45:22;11.50;99.90
22852;DHT22;11592;45.460;9.240;2022-12-29T10:47:59;11.50;99.90
22852;DHT22;11592;45.460;9.240;2022-12-29T10:50:27;11.50;99.90
22852;DHT22;11592;45.460;9.240;2022-12-29T10:52:58;11.40;99.90
22852;DHT22;11592;45.460;9.240;2022-12-29T10:55:35;11.20;99.90
22852;DHT22;11592;45.460;9.240;2022-12-29T10:58:05;11.20;99.90
22852;DHT22;11592;45.460;9.240;2022-12-29T11:00:33;11.30;99.90
22852;DHT22;11592;45.460;9.240;2022-12-29T11:03:19;11.10;99.90
22852;DHT22;11592;45.460;9.240;2022-12-29T11:05:59;11.00;99.90
22852;DHT22;11592;45.460;9.240;2022-12-29T11:08:35;11.00;99.90
22852;DHT22;11592;45.460;9.240;2022-12-29T11:11:07;11.20;99.90
22852;DHT22;11592;45.460;9.240;2022-12-29T11:13:55;11.30;99.90
22852;DHT22;11592;45.460;9.240;2022-12-29T11:16:31;11.40;99.90
22852;DHT22;11592;45.460;9.240;2022-12-29T11:18:58;11.50;99.90
22852;DHT22;11592;45.460;9.240;2022-12-29T11:21:34;11.50;99.90
22852;DHT22;11592;45.460;9.240;2022-12-29T11:26:46;11.10;99.90
22852;DHT22;11592;45.460;9.240;2022-12-29T11:31:51;11.10;99.90
22852;DHT22;11592;45.460;9.240;2022-12-29T11:34:35;11.20;99.90
22852;DHT22;11592;45.460;9.240;2022-12-29T11:39:37;11.40;99.90
22852;DHT22;11592;45.460;9.240;2022-12-29T11:42:06;11.40;99.90
22852;DHT22;11592;45.460;9.240;2022-12-29T11:44:41;11.40;99.90
22852;DHT22;11592;45.460;9.240;2022-12-29T11:47:23;11.30;99.90
22852;DHT22;11592;45.460;9.240;2022-12-29T11:49:55;11.10;99.90
22852;DHT22;11592;45.460;9.240;2022-12-29T11:52:24;11.10;99.90
22852;DHT22;11592;45.460;9.240;2022-12-29T11:54:53;11.20;99.90
22852;DHT22;11592;45.460;9.240;2022-12-29T11:57:22;11.30;99.90
22852;DHT22;11592;45.460;9.240;2022-12-29T11:59:54;11.30;99.90
22852;DHT22;11592;45.460;9.240;2022-12-29T12:02:36;11.40;99.90
22852;DHT22;11592;45.460;9.240;2022-12-29T12:05:10;11.30;99.90
22852;DHT22;11592;45.460;9.240;2022-12-29T12:07:43;11.10;99.90
22852;DHT22;11592;45.460;9.240;2022-12-29T12:10:21;11.00;99.90
22852;DHT22;11592;45.460;9.240;2022-12-29T12:15:35;11.10;99.90
22852;DHT22;11592;45.460;9.240;2022-12-29T12:21:04;11.00;99.90
22852;DHT22;11592;45.460;9.240;2022-12-29T12:26:37;10.70;99.90
22852;DHT22;11592;45.460;9.240;2022-12-29T12:29:38;10.60;99.90
22852;DHT22;11592;45.460;9.240;2022-12-29T12:32:34;10.40;99.90
22852;DHT22;11592;45.460;9.240;2022-12-29T12:35:04;10.60;99.90
22852;DHT22;11592;45.460;9.240;2022-12-29T12:37:46;10.70;99.90
22852;DHT22;11592;45.460;9.240;2022-12-29T12:40:34;10.70;99.90
22852;DHT22;11592;45.460;9.240;2022-12-29T13:00:24;11.60;99.90
22852;DHT22;11592;45.460;9.240;2022-12-29T13:16:54;11.40;99.90
22852;DHT22;11592;45.460;9.240;2022-12-29T13:30:19;11.60;99.90
22852;DHT22;11592;45.460;9.240;2022-12-29T13:32:55;11.40;99.90
22852;DHT22;11592;45.460;9.240;2022-12-29T13:38:19;11.60;99.90
22852;DHT22;11592;45.460;9.240;2022-12-29T13:40:52;11.60;99.90
22852;DHT22;11592;45.460;9.240;2022-12-29T13:43:22;11.70;99.90
22852;DHT22;11592;45.460;9.240;2022-12-29T13:45:56;11.70;99.90
22852;DHT22;11592;45.460;9.240;2022-12-29T13:48:41;11.60;99.90
22852;DHT22;11592;45.460;9.240;2022-12-29T13:51:10;11.60;99.90
22852;DHT22;11592;45.460;9.240;2022-12-29T14:01:50;12.00;99.90
22852;DHT22;11592;45.460;9.240;2022-12-29T14:04:28;12.10;99.90
22852;DHT22;11592;45.460;9.240;2022-12-29T14:07:03;12.20;99.90
22852;DHT22;11592;45.460;9.240;2022-12-29T14:09:52;12.30;99.90
22852;DHT22;11592;45.460;9.240;2022-12-29T14:14:47;12.20;99.90
22852;DHT22;11592;45.460;9.240;2022-12-29T14:17:19;12.10;99.90
22852;DHT22;11592;45.460;9.240;2022-12-29T14:19:50;12.00;99.90
22852;DHT22;11592;45.460;9.240;2022-12-29T14:22:24;11.90;99.90
22852;DHT22;11592;45.460;9.240;2022-12-29T14:24:58;11.70;99.90
22852;DHT22;11592;45.460;9.240;2022-12-29T14:27:43;11.60;99.90
22852;DHT22;11592;45.460;9.240;2022-12-29T14:30:46;11.60;99.90
22852;DHT22;11592;45.460;9.240;2022-12-29T14:33:14;11.50;99.90
22852;DHT22;11592;45.460;9.240;2022-12-29T14:35:44;11.50;99.90
22852;DHT22;11592;45.460;9.240;2022-12-29T14:38:22;11.40;99.90
22852;DHT22;11592;45.460;9.240;2022-12-29T14:40:51;11.50;99.90
22852;DHT22;11592;45.460;9.240;2022-12-29T14:43:25;11.40;99.90
22852;DHT22;11592;45.460;9.240;2022-12-29T14:45:55;11.40;99.90
22852;DHT22;11592;45.460;9.240;2022-12-29T14:51:01;11.40;99.90
22852;DHT22;11592;45.460;9.240;2022-12-29T14:53:49;11.30;99.90
22852;DHT22;11592;45.460;9.240;2022-12-29T14:56:18;11.40;99.90
22852;DHT22;11592;45.460;9.240;2022-12-29T14:59:10;11.30;99.90
22852;DHT22;11592;45.460;9.240;2022-12-29T15:01:47;11.30;99.90
22852;DHT22;11592;45.460;9.240;2022-12-29T15:04:30;11.30;99.90
22852;DHT22;11592;45.460;9.240;2022-12-29T15:06:57;11.30;99.90
22852;DHT22;11592;45.460;9.240;2022-12-29T15:09:43;11.30;99.90
22852;DHT22;11592;45.460;9.240;2022-12-29T15:14:56;11.10;99.90
22852;DHT22;11592;45.460;9.240;2022-12-29T15:17:24;11.00;99.90
22852;DHT22;11592;45.460;9.240;2022-12-29T15:19:52;11.00;99.90
22852;DHT22;11592;45.460;9.240;2022-12-29T15:22:19;11.10;99.90
22852;DHT22;11592;45.460;9.240;2022-12-29T15:24:46;11.10;99.90
22852;DHT22;11592;45.460;9.240;2022-12-29T15:27:14;11.10;99.90
22852;DHT22;11592;45.460;9.240;2022-12-29T15:29:46;11.10;99.90
22852;DHT22;11592;45.460;9.240;2022-12-29T15:34:43;11.10;99.90
22852;DHT22;11592;45.460;9.240;2022-12-29T15:37:23;11.10;99.90
22852;DHT22;11592;45.460;9.240;2022-12-29T15:39:51;11.00;99.90
22852;DHT22;11592;45.460;9.240;2022-12-29T15:42:39;10.90;99.90
22852;DHT22;11592;45.460;9.240;2022-12-29T15:45:12;10.90;99.90
22852;DHT22;11592;45.460;9.240;2022-12-29T15:47:42;10.90;99.90
22852;DHT22;11592;45.460;9.240;2022-12-29T15:50:31;10.90;99.90
22852;DHT22;11592;45.460;9.240;2022-12-29T15:52:59;10.90;99.90
22852;DHT22;11592;45.460;9.240;2022-12-29T15:55:36;10.90;99.90
22852;DHT22;11592;45.460;9.240;2022-12-29T15:58:05;10.90;99.90
22852;DHT22;11592;45.460;9.240;2022-12-29T16:00:50;10.80;99.90
22852;DHT22;11592;45.460;9.240;2022-12-29T16:03:20;10.80;99.90
22852;DHT22;11592;45.460;9.240;2022-12-29T16:06:33;10.80;99.90
22852;DHT22;11592;45.460;9.240;2022-12-29T16:14:10;10.90;99.90
22852;DHT22;11592;45.460;9.240;2022-12-29T16:16:43;10.90;99.90
22852;DHT22;11592;45.460;9.240;2022-12-29T16:19:20;11.00;99.90
22852;DHT22;11592;45.460;9.240;2022-12-29T16:21:48;10.90;99.90
22852;DHT22;11592;45.460;9.240;2022-12-29T16:24:17;10.80;99.90
22852;DHT22;11592;45.460;9.240;2022-12-29T16:29:31;10.80;99.90
22852;DHT22;11592;45.460;9.240;2022-12-29T16:31:59;10.80;99.90
22852;DHT22;11592;45.460;9.240;2022-12-29T16:34:31;10.80;99.90
22852;DHT22;11592;45.460;9.240;2022-12-29T16:37:24;10.80;99.90
22852;DHT22;11592;45.460;9.240;2022-12-29T16:39:51;10.70;99.90
22852;DHT22;11592;45.460;9.240;2022-12-29T18:28:51;10.40;99.90
22852;DHT22;11592;45.460;9.240;2022-12-29T18:31:24;10.40;99.90
22852;DHT22;11592;45.460;9.240;2022-12-29T18:33:53;10.30;99.90
22852;DHT22;11592;45.460;9.240;2022-12-29T18:36:20;10.30;99.90
22852;DHT22;11592;45.460;9.240;2022-12-29T18:38:48;10.30;99.90
22852;DHT22;11592;45.460;9.240;2022-12-29T18:41:27;10.40;99.90
22852;DHT22;11592;45.460;9.240;2022-12-29T18:43:55;10.40;99.90
22852;DHT22;11592;45.460;9.240;2022-12-29T18:46:22;10.30;99.90
22852;DHT22;11592;45.460;9.240;2022-12-29T18:48:50;10.30;99.90
22852;DHT22;11592;45.460;9.240;2022-12-29T18:51:22;10.40;99.90
22852;DHT22;11592;45.460;9.240;2022-12-29T18:53:50;10.40;99.90
22852;DHT22;11592;45.460;9.240;2022-12-29T18:56:20;10.50;99.90
22852;DHT22;11592;45.460;9.240;2022-12-29T18:58:48;10.40;99.90
22852;DHT22;11592;45.460;9.240;2022-12-29T19:01:19;10.40;99.90
22852;DHT22;11592;45.460;9.240;2022-12-29T19:03:46;10.30;99.90
22852;DHT22;11592;45.460;9.240;2022-12-29T19:06:13;10.30;99.90
22852;DHT22;11592;45.460;9.240;2022-12-29T19:08:40;10.10;99.90
22852;DHT22;11592;45.460;9.240;2022-12-29T19:11:07;10.20;99.90
22852;DHT22;11592;45.460;9.240;2022-12-29T19:13:34;10.30;99.90
22852;DHT22;11592;45.460;9.240;2022-12-29T19:16:00;10.40;99.90
22852;DHT22;11592;45.460;9.240;2022-12-29T19:18:28;10.50;99.90
22852;DHT22;11592;45.460;9.240;2022-12-29T19:21:15;10.40;99.90
22852;DHT22;11592;45.460;9.240;2022-12-29T19:23:41;10.10;99.90
22852;DHT22;11592;45.460;9.240;2022-12-29T19:26:26;9.90;99.90
22852;DHT22;11592;45.460;9.240;2022-12-29T19:28:53;9.90;99.90
22852;DHT22;11592;45.460;9.240;2022-12-29T19:31:20;9.80;99.90
22852;DHT22;11592;45.460;9.240;2022-12-29T19:33:47;9.80;99.90
22852;DHT22;11592;45.460;9.240;2022-12-29T19:36:14;9.70;99.90
22852;DHT22;11592;45.460;9.240;2022-12-29T19:38:42;9.60;99.90
22852;DHT22;11592;45.460;9.240;2022-12-29T19:41:11;9.60;99.90
22852;DHT22;11592;45.460;9.240;2022-12-29T19:43:38;9.70;99.90
22852;DHT22;11592;45.460;9.240;2022-12-29T19:46:10;9.70;99.90
22852;DHT22;11592;45.460;9.240;2022-12-29T19:48:37;9.80;99.90
22852;DHT22;11592;45.460;9.240;2022-12-29T19:51:08;9.90;99.90
22852;DHT22;11592;45.460;9.240;2022-12-29T19:53:36;9.90;99.90
22852;DHT22;11592;45.460;9.240;2022-12-29T19:56:06;9.90;99.90
22852;DHT22;11592;45.460;9.240;2022-12-29T19:58:34;10.00;99.90
22852;DHT22;11592;45.460;9.240;2022-12-29T20:01:13;10.10;99.90